Meadows Of Dan, VA (24120)

6:58 PM EDT on March 26, 2015 (GMT -0400)
Country Road Realty | | Change Station
CLOSE
Current Station
Personal Weather Station
Location: Meadows Of Dan, VA
Elevation: 2910 ft
Nearby Weather Stations

Elev 2910 ft 36.73 °N, 80.44 °W | Updated 3 minutes ago

Partly Cloudy
Partly Cloudy
60.9 °F
Feels Like 60.9 °F
N
8.0
Wind Variable Wind from WSW
Gusts 12.9 mph

Today
High -- | Low -- °F
--% Chance of Precip.
Yesterday
High -- | Low -- °F
Precip. -- in
7:16 AM 7:38 PM
Waxing Crescent, 46% visible
Pressure 29.72 in
Visibility -9999.0 miles
Clouds Scattered Clouds 6500 ft
Dew Point 52 °F
Humidity 73%
Rainfall 0.04 in
Snow Depth Not available.
UV 1 out of 12
Pollen 9.40 out of 12
Air Quality Not available.
Flu Activity Not available.
METAR KMWK 262235Z AUTO 22009KT SCT065 22/13 A2972 RMK AO2 T02170133 PWINO

More Conditions Fewer Conditions

Pressure 29.72 in
Visibility -9999.0 miles
Clouds Scattered Clouds 6500 ft
Dew Point 52 °F
Humidity 73%
Rainfall 0.04 in
Snow Depth Not available.
UV 1 out of 12
Pollen 9.40 out of 12
Air Quality Not available.
Flu Activity Not available.
METAR KMWK 262235Z AUTO 22009KT SCT065 22/13 A2972 RMK AO2 T02170133 PWINO

More Conditions Fewer Conditions

10-Day Weather Forecast

Almanac

Astronomy

Mar. 26, 2015 Rise Set
Actual Time
Civil Twilight
Nautical Twilight
Astronomical Twilight
Moon
Length of Visible Light
Length of Day
Tomorrow will be .
, % of the Moon is Illuminated

Today's Extremes

State Highs State Lows

Community

WunderPhotos

Upload Photos

1,808,629 photos uploaded!

WunderBlogs® & News

Nearby

Air Quality

  Air Quality AQ Index Pollutant
Not available.

Snow Depth

Station Depth Elevation

Earthquake Activity

City Distance Mag. Time & Date
Minimum magnitude displayed is 2.5.

Coastal Water Temperatures

Place Temperature

Stations

Nearby Weather Stations

Station Location Temp. Windchill Dew Point Humidity Wind Precip. Elev Updated Type